Time;durP1;ratioP1;P1;durP2;ratioP2;P2;SDS_P1;SDS_P2;PMS_P1;PMS_P2;Temp;Humidity;BMP_temperature;BMP_pressure;BME280_temperature;BME280_humidity;BME280_pressure;Samples;Min_cycle;Max_cycle;Signal;HPM_P1;HPM_P2
2021/09/04 00:00:36;;;;;;;13.07;7.68;;;;;;;18.38;66.57;98731.31;5075128;28;20512;-92
2021/09/04 00:03:02;;;;;;;13.48;7.72;;;;;;;18.39;66.41;98727.66;5076070;28;20036;-90
2021/09/04 00:05:29;;;;;;;11.80;7.63;;;;;;;18.56;65.71;98737.41;5076275;28;20040;-90
2021/09/04 00:07:55;;;;;;;11.18;7.68;;;;;;;18.66;65.14;98731.38;5075376;28;20028;-91
2021/09/04 00:10:23;;;;;;;11.57;7.00;;;;;;;18.66;64.90;98725.97;5075806;28;20106;-91
2021/09/04 00:12:48;;;;;;;11.85;7.50;;;;;;;18.73;64.88;98720.22;5074181;28;20071;-88
2021/09/04 00:15:14;;;;;;;10.93;6.95;;;;;;;18.72;64.79;98722.06;5073322;28;20051;-89
2021/09/04 00:17:40;;;;;;;12.95;7.72;;;;;;;18.66;65.22;98722.44;5073318;28;20033;-90
2021/09/04 00:20:08;;;;;;;11.30;7.68;;;;;;;18.59;65.18;98710.31;5076960;28;20387;-90
2021/09/04 00:22:34;;;;;;;12.88;7.18;;;;;;;18.59;65.15;98708.47;5073929;28;20494;-90
2021/09/04 00:24:59;;;;;;;12.52;7.60;;;;;;;18.59;65.61;98713.88;5075760;28;20056;-90
2021/09/04 00:27:27;;;;;;;11.52;7.13;;;;;;;18.67;65.21;98710.69;5076378;28;20063;-91
2021/09/04 00:29:52;;;;;;;14.27;7.45;;;;;;;18.73;65.17;98702.22;5077733;28;20035;-91
2021/09/04 00:32:18;;;;;;;11.95;7.47;;;;;;;18.79;64.47;98703.72;5074897;28;20037;-92
2021/09/04 00:34:44;;;;;;;11.63;7.18;;;;;;;18.78;64.18;98692.09;5075921;28;20052;-92
2021/09/04 00:37:10;;;;;;;12.13;7.32;;;;;;;18.79;64.83;98699.19;5076348;28;20047;-91
2021/09/04 00:39:36;;;;;;;10.02;6.65;;;;;;;18.71;64.72;98695.22;5074845;28;20032;-91
2021/09/04 00:42:02;;;;;;;12.63;7.70;;;;;;;18.73;64.86;98696.84;5077887;28;20033;-90
2021/09/04 00:44:29;;;;;;;12.80;7.38;;;;;;;18.55;65.78;98695.28;5076385;28;20041;-89
2021/09/04 00:47:00;;;;;;;11.45;7.50;;;;;;;18.44;65.64;98694.13;5074825;28;20984;-91
2021/09/04 00:49:26;;;;;;;12.43;7.25;;;;;;;18.54;66.02;98705.22;5076126;28;20032;-90
2021/09/04 00:51:51;;;;;;;13.75;7.63;;;;;;;18.50;66.20;98700.97;5074470;28;20039;-89
2021/09/04 00:54:17;;;;;;;14.48;7.70;;;;;;;18.42;66.36;98695.16;5077441;28;20041;-91
2021/09/04 00:56:43;;;;;;;14.23;7.55;;;;;;;18.43;66.37;98702.28;5083463;28;20047;-92
2021/09/04 00:59:09;;;;;;;13.18;7.45;;;;;;;18.44;66.50;98698.63;5076942;28;20131;-90
2021/09/04 01:01:36;;;;;;;12.90;7.10;;;;;;;18.34;66.94;98703.69;5076779;28;20037;-90
2021/09/04 01:04:02;;;;;;;14.48;7.80;;;;;;;18.21;67.25;98697.31;5080879;28;20067;-89
2021/09/04 01:06:28;;;;;;;13.52;7.32;;;;;;;18.19;67.36;98692.00;5078191;28;20068;-90
2021/09/04 01:08:55;;;;;;;12.50;7.78;;;;;;;18.14;67.67;98694.13;5081434;28;20036;-90
2021/09/04 01:11:21;;;;;;;14.02;8.38;;;;;;;18.19;67.01;98683.94;5081366;28;20036;-89
2021/09/04 01:13:47;;;;;;;13.35;8.07;;;;;;;18.29;67.00;98695.03;5082336;28;20036;-91
2021/09/04 01:16:13;;;;;;;13.50;7.97;;;;;;;18.30;66.47;98686.00;5078740;28;20497;-91
2021/09/04 01:18:40;;;;;;;10.35;6.97;;;;;;;18.37;66.49;98687.38;5077671;28;20131;-90
2021/09/04 01:21:08;;;;;;;12.50;8.02;;;;;;;18.47;66.23;98691.22;5079254;28;20036;-91
2021/09/04 01:23:34;;;;;;;13.77;7.53;;;;;;;18.58;65.60;98689.72;5079505;28;20036;-91
2021/09/04 01:26:03;;;;;;;12.60;7.00;;;;;;;18.49;66.21;98677.66;5075830;28;20040;-91
2021/09/04 01:28:28;;;;;;;10.65;6.80;;;;;;;18.41;65.94;98669.19;5083218;28;20038;-91
2021/09/04 01:30:54;;;;;;;11.55;7.22;;;;;;;18.47;65.58;98685.84;5080155;28;20037;-90
2021/09/04 01:33:20;;;;;;;12.30;7.18;;;;;;;18.53;65.59;98687.31;5081000;28;20042;-91
2021/09/04 01:35:46;;;;;;;13.57;7.03;;;;;;;18.56;65.35;98681.72;5077066;28;20041;-90
2021/09/04 01:38:11;;;;;;;15.15;7.57;;;;;;;18.57;65.28;98678.06;5080671;28;20060;-92
2021/09/04 01:40:37;;;;;;;12.10;7.10;;;;;;;18.57;65.39;98672.69;5074887;28;20032;-91
2021/09/04 01:43:05;;;;;;;10.32;6.35;;;;;;;18.70;65.99;98674.63;5072994;28;20044;-92
2021/09/04 01:45:30;;;;;;;12.18;7.35;;;;;;;18.66;65.45;98669.41;5074661;28;20561;-92
2021/09/04 01:47:56;;;;;;;9.75;6.68;;;;;;;18.70;65.54;98671.94;5080162;28;20104;-92
2021/09/04 01:50:22;;;;;;;13.63;8.07;;;;;;;18.67;65.08;98668.47;5079031;28;21436;-92
2021/09/04 01:52:48;;;;;;;12.05;7.15;;;;;;;18.63;65.64;98668.78;5084367;28;20048;-91
2021/09/04 01:55:17;;;;;;;11.65;7.60;;;;;;;18.56;66.00;98670.94;5092446;28;20036;-91
2021/09/04 01:57:42;;;;;;;13.73;7.32;;;;;;;18.52;65.96;98672.13;5091018;28;20036;-91
2021/09/04 02:00:12;;;;;;;11.02;6.90;;;;;;;18.36;66.83;98668.63;5090758;28;20051;-92
2021/09/04 02:02:38;;;;;;;11.35;6.95;;;;;;;18.34;66.96;98657.94;5091494;28;20033;-91
2021/09/04 02:05:05;;;;;;;11.20;7.13;;;;;;;18.35;67.01;98662.38;5092504;28;20036;-90
2021/09/04 02:07:31;;;;;;;12.90;7.35;;;;;;;18.26;67.53;98660.25;5090919;28;20039;-91
2021/09/04 02:09:57;;;;;;;14.15;8.20;;;;;;;18.13;67.99;98657.41;5092461;28;20024;-93
2021/09/04 02:12:23;;;;;;;11.85;7.30;;;;;;;18.02;68.46;98654.47;5092294;28;20036;-92
2021/09/04 02:14:49;;;;;;;14.20;8.32;;;;;;;17.93;68.58;98653.19;5094152;28;20066;-92
2021/09/04 02:17:17;;;;;;;13.57;8.10;;;;;;;17.92;68.86;98661.38;5094590;28;20051;-91
2021/09/04 02:19:42;;;;;;;11.52;7.57;;;;;;;17.81;69.09;98644.00;5092326;28;20493;-91
2021/09/04 02:22:08;;;;;;;12.15;8.05;;;;;;;17.85;69.05;98645.59;5096651;28;20048;-91
2021/09/04 02:24:34;;;;;;;14.43;7.72;;;;;;;17.80;69.00;98644.09;5096373;28;20062;-91
2021/09/04 02:27:00;;;;;;;14.10;7.70;;;;;;;17.71;69.42;98653.56;5097315;28;20039;-91
2021/09/04 02:29:26;;;;;;;13.80;8.05;;;;;;;17.63;69.95;98653.13;5096269;28;20039;-92
2021/09/04 02:31:52;;;;;;;16.58;8.65;;;;;;;17.58;70.29;98649.84;5094699;28;20103;-91
2021/09/04 02:34:19;;;;;;;13.15;8.27;;;;;;;17.48;70.63;98643.25;5096492;28;20028;-92
2021/09/04 02:36:45;;;;;;;12.35;8.07;;;;;;;17.47;70.83;98633.47;5094174;28;20040;-90
2021/09/04 02:39:11;;;;;;;12.00;7.60;;;;;;;17.43;70.72;98630.09;5088037;28;20451;-92
2021/09/04 02:41:37;;;;;;;14.55;8.30;;;;;;;17.46;71.08;98635.31;5096954;28;20032;-91
2021/09/04 02:44:03;;;;;;;12.48;7.93;;;;;;;17.41;70.94;98637.38;5096712;28;20036;-92
2021/09/04 02:46:29;;;;;;;13.93;8.25;;;;;;;17.47;70.63;98634.34;5094531;28;20040;-91
2021/09/04 02:48:55;;;;;;;12.77;7.85;;;;;;;17.55;70.29;98628.53;5096484;28;20028;-91
2021/09/04 02:51:22;;;;;;;12.93;7.70;;;;;;;17.54;70.57;98645.59;5096308;28;20435;-91
2021/09/04 02:53:48;;;;;;;12.55;7.68;;;;;;;17.40;70.59;98633.81;5083908;28;20438;-92
2021/09/04 02:56:14;;;;;;;11.40;7.07;;;;;;;17.41;70.58;98630.19;5079946;28;20063;-92
2021/09/04 02:58:40;;;;;;;11.43;7.78;;;;;;;17.44;70.55;98638.06;5078054;28;20056;-90
2021/09/04 03:01:06;;;;;;;13.23;7.75;;;;;;;17.43;70.53;98635.47;5073923;28;20052;-92
2021/09/04 03:03:32;;;;;;;13.82;7.60;;;;;;;17.49;70.37;98640.50;5079030;28;20106;-92
2021/09/04 03:06:00;;;;;;;12.98;7.72;;;;;;;17.47;70.74;98639.72;5073070;28;20044;-90
2021/09/04 03:08:27;;;;;;;;;;;;;;;17.40;71.25;98636.50;5067597;28;20548;-91
2021/09/04 03:10:53;;;;;;;12.23;8.10;;;;;;;17.35;71.45;98640.41;5070780;28;19924;-92
2021/09/04 03:13:19;;;;;;;13.60;8.25;;;;;;;17.31;71.37;98633.50;5076973;28;20505;-91
2021/09/04 03:15:45;;;;;;;12.57;7.53;;;;;;;17.30;71.33;98640.66;5071921;28;20118;-90
2021/09/04 03:18:11;;;;;;;14.93;7.75;;;;;;;17.29;71.37;98649.69;5068970;28;20044;-91
2021/09/04 03:20:37;;;;;;;11.80;7.47;;;;;;;17.30;71.58;98643.34;5072569;28;20106;-93
2021/09/04 03:23:02;;;;;;;12.05;7.80;;;;;;;17.37;71.39;98657.31;5078148;28;20046;-91
2021/09/04 03:25:30;;;;;;;12.30;7.82;;;;;;;17.39;71.32;98650.03;5080976;28;20108;-91
2021/09/04 03:27:56;;;;;;;15.00;8.13;;;;;;;17.27;71.82;98648.91;5081070;28;20037;-91
2021/09/04 03:30:21;;;;;;;13.07;7.95;;;;;;;17.23;72.30;98650.03;5075538;28;20042;-91
2021/09/04 03:32:47;;;;;;;15.73;8.32;;;;;;;17.22;72.15;98642.94;5079035;28;20036;-90
2021/09/04 03:35:13;;;;;;;13.60;8.30;;;;;;;17.17;72.20;98615.44;5074509;28;20086;-90
2021/09/04 03:37:39;;;;;;;14.05;7.90;;;;;;;17.26;72.25;98633.72;5079527;28;20028;-90
2021/09/04 03:40:06;;;;;;;13.43;7.63;;;;;;;17.25;71.93;98640.06;5078001;28;20032;-92
2021/09/04 03:42:33;;;;;;;13.25;7.85;;;;;;;17.23;71.95;98633.91;5076818;28;20098;-89
2021/09/04 03:44:58;;;;;;;11.98;7.82;;;;;;;17.31;71.79;98636.19;5076639;28;20044;-92
2021/09/04 03:47:24;;;;;;;12.40;7.43;;;;;;;17.37;71.41;98639.38;5074680;28;20054;-90
2021/09/04 03:49:50;;;;;;;15.15;6.88;;;;;;;17.35;71.44;98619.78;5079192;28;20393;-90
2021/09/04 03:52:16;;;;;;;14.10;7.68;;;;;;;17.37;71.43;98623.25;5080548;28;20456;-90
2021/09/04 03:54:42;;;;;;;15.55;8.35;;;;;;;17.43;70.89;98612.13;5075365;28;20037;-90
2021/09/04 03:57:08;;;;;;;12.35;7.68;;;;;;;17.37;71.44;98623.25;5075021;28;20136;-90
2021/09/04 03:59:35;;;;;;;13.25;7.90;;;;;;;17.27;71.45;98597.84;5061843;28;20124;-90
2021/09/04 04:02:01;;;;;;;13.68;7.47;;;;;;;17.27;71.47;98611.28;5071728;28;20044;-89
2021/09/04 04:04:26;;;;;;;13.75;8.38;;;;;;;17.29;71.74;98611.22;5074844;28;20091;-92
2021/09/04 04:06:52;;;;;;;14.93;8.52;;;;;;;17.23;72.06;98613.28;5074693;28;20036;-90
2021/09/04 04:09:18;;;;;;;12.48;8.65;;;;;;;17.28;71.65;98594.19;5074706;28;20045;-91
2021/09/04 04:11:44;;;;;;;13.23;8.35;;;;;;;17.24;72.01;98595.34;5073129;28;20059;-90
2021/09/04 04:14:10;;;;;;;14.45;8.55;;;;;;;17.14;72.52;98596.81;5074105;28;20441;-90
2021/09/04 04:16:37;;;;;;;14.52;8.30;;;;;;;17.18;72.89;98596.56;5072427;28;20040;-90
2021/09/04 04:19:02;;;;;;;16.00;8.35;;;;;;;17.13;73.01;98590.59;5074755;28;20040;-91
2021/09/04 04:21:28;;;;;;;15.02;8.68;;;;;;;17.08;73.40;98594.47;5074543;28;20059;-91
2021/09/04 04:23:54;;;;;;;12.18;7.95;;;;;;;17.02;73.20;98588.50;5074527;28;20056;-90
2021/09/04 04:26:20;;;;;;;13.27;8.27;;;;;;;17.06;73.23;98585.63;5074515;28;20043;-91
2021/09/04 04:28:46;;;;;;;13.57;8.30;;;;;;;17.07;73.40;98584.66;5074350;28;20052;-91
2021/09/04 04:31:11;;;;;;;13.57;7.72;;;;;;;17.13;72.63;98582.53;5072471;28;20032;-90
2021/09/04 04:33:39;;;;;;;15.82;8.35;;;;;;;17.12;72.58;98587.97;5074278;28;20397;-90
2021/09/04 04:36:04;;;;;;;15.05;8.55;;;;;;;17.16;72.67;98598.47;5072899;28;20425;-91
2021/09/04 04:38:33;;;;;;;13.32;8.00;;;;;;;17.22;72.53;98603.50;5073759;28;20048;-92
2021/09/04 04:40:59;;;;;;;11.88;7.50;;;;;;;17.25;72.66;98599.75;5072923;28;20040;-91
2021/09/04 04:43:24;;;;;;;13.93;8.38;;;;;;;17.30;72.32;98597.66;5074378;28;20082;-92
2021/09/04 04:45:50;;;;;;;13.57;8.98;;;;;;;17.36;71.89;98599.16;5072101;28;20151;-92
2021/09/04 04:48:18;;;;;;;14.20;8.32;;;;;;;17.41;71.48;98588.97;5074026;28;20565;-91
2021/09/04 04:50:46;;;;;;;12.70;7.72;;;;;;;17.43;70.69;98592.44;5074178;28;20123;-90
2021/09/04 04:53:12;;;;;;;19.38;8.63;;;;;;;17.44;70.31;98595.06;5082254;28;20079;-90
2021/09/04 04:55:38;;;;;;;13.30;7.80;;;;;;;17.48;70.01;98589.50;5092343;28;20044;-91
2021/09/04 04:58:04;;;;;;;11.68;7.45;;;;;;;17.59;69.86;98611.25;5094367;28;20040;-91
2021/09/04 05:00:29;;;;;;;12.10;7.90;;;;;;;17.61;69.42;98603.97;5092585;28;20051;-91
2021/09/04 05:02:55;;;;;;;11.98;7.93;;;;;;;17.74;68.97;98601.41;5092469;28;20079;-91
2021/09/04 05:05:21;;;;;;;11.82;7.65;;;;;;;17.81;68.77;98606.34;5093966;28;20081;-92
2021/09/04 05:07:48;;;;;;;11.93;7.72;;;;;;;17.85;68.12;98602.56;5093771;28;20043;-92
2021/09/04 05:10:14;;;;;;;13.05;7.32;;;;;;;17.95;67.63;98602.00;5091413;28;20040;-92
2021/09/04 05:12:40;;;;;;;11.63;7.63;;;;;;;17.98;67.91;98599.13;5093668;28;20031;-91
2021/09/04 05:15:06;;;;;;;13.25;7.97;;;;;;;18.14;68.18;98618.75;5090188;28;20044;-91
2021/09/04 05:17:32;;;;;;;14.90;8.30;;;;;;;18.17;68.33;98620.41;5093751;28;20071;-91
2021/09/04 05:19:58;;;;;;;14.65;8.85;;;;;;;18.17;68.77;98609.63;5094390;28;20521;-90
2021/09/04 05:22:24;;;;;;;13.85;8.55;;;;;;;18.18;69.26;98609.56;5094091;28;20050;-91
2021/09/04 05:24:51;;;;;;;15.90;9.15;;;;;;;18.18;68.97;98616.75;5094716;28;20048;-92
2021/09/04 05:27:17;;;;;;;16.20;8.88;;;;;;;18.20;68.93;98621.09;5094592;28;20048;-94
2021/09/04 05:29:42;;;;;;;15.15;9.40;;;;;;;18.16;69.31;98621.38;5094424;28;20040;-92
2021/09/04 05:32:08;;;;;;;12.90;8.50;;;;;;;18.06;69.39;98619.25;5092065;28;20489;-92
2021/09/04 05:34:34;;;;;;;13.88;8.15;;;;;;;18.19;69.32;98634.63;5093518;28;20028;-93
2021/09/04 05:37:00;;;;;;;15.75;8.65;;;;;;;18.18;69.42;98636.47;5094116;28;20036;-90
2021/09/04 05:39:26;;;;;;;16.02;9.25;;;;;;;18.19;69.33;98640.88;5093912;28;20072;-91
2021/09/04 05:41:53;;;;;;;16.20;9.23;;;;;;;18.25;69.64;98645.88;5092146;28;20044;-92
2021/09/04 05:44:19;;;;;;;14.23;8.50;;;;;;;18.35;68.99;98651.59;5094131;28;20063;-92
2021/09/04 05:46:45;;;;;;;20.38;8.70;;;;;;;18.45;68.34;98650.09;5091948;28;20063;-92
2021/09/04 05:49:10;;;;;;;14.60;8.40;;;;;;;18.60;67.76;98656.31;5093515;28;20131;-92
2021/09/04 05:51:36;;;;;;;14.95;8.68;;;;;;;18.66;67.27;98637.09;5093175;28;20037;-91
2021/09/04 05:54:02;;;;;;;13.38;8.43;;;;;;;18.79;66.71;98642.63;5080075;28;20098;-91
2021/09/04 05:56:28;;;;;;;14.02;8.15;;;;;;;18.98;66.54;98661.19;5075499;28;20055;-93
2021/09/04 05:58:55;;;;;;;14.68;8.27;;;;;;;19.07;65.97;98641.75;5073195;28;20041;-91
2021/09/04 06:01:21;;;;;;;14.85;8.95;;;;;;;19.12;65.78;98660.31;5078548;28;20045;-90
2021/09/04 06:03:47;;;;;;;13.38;7.90;;;;;;;19.04;66.02;98651.84;5076402;28;20041;-91
2021/09/04 06:06:12;;;;;;;13.95;8.85;;;;;;;19.05;66.03;98661.69;5078326;28;20063;-89
2021/09/04 06:08:39;;;;;;;14.52;8.27;;;;;;;19.07;66.17;98662.44;5077949;28;20072;-89
2021/09/04 06:11:05;;;;;;;15.15;8.30;;;;;;;19.15;66.29;98664.63;5076648;28;20040;-93
2021/09/04 06:13:31;;;;;;;13.90;8.27;;;;;;;19.13;66.24;98662.06;5074491;28;20444;-91
2021/09/04 06:15:58;;;;;;;14.45;8.25;;;;;;;19.14;65.37;98668.31;5076083;28;20072;-91
2021/09/04 06:18:24;;;;;;;11.63;7.40;;;;;;;18.98;65.79;98676.50;5075225;28;20036;-89
2021/09/04 06:20:50;;;;;;;13.15;8.20;;;;;;;19.04;65.13;98682.38;5077978;28;20556;-91
2021/09/04 06:23:15;;;;;;;18.02;10.25;;;;;;;19.07;64.32;98684.88;5073845;28;20478;-89
2021/09/04 06:25:41;;;;;;;16.13;10.45;;;;;;;19.07;64.49;98692.09;5080506;28;20552;-90
2021/09/04 06:28:07;;;;;;;18.48;11.55;;;;;;;19.14;64.50;98689.88;5075944;28;20060;-92
2021/09/04 06:30:33;;;;;;;17.85;10.90;;;;;;;19.18;64.04;98677.94;5076858;28;20041;-92
2021/09/04 06:33:09;;;;;;;22.73;11.85;;;;;;;19.29;63.88;98681.66;5081038;28;20047;-92
2021/09/04 06:35:36;;;;;;;21.13;12.48;;;;;;;19.34;63.72;98667.88;5076376;28;20048;-92
2021/09/04 06:38:02;;;;;;;22.35;11.93;;;;;;;19.44;63.31;98668.16;5075017;28;20130;-92
2021/09/04 06:40:28;;;;;;;23.77;13.52;;;;;;;19.55;62.75;98659.38;5077031;28;20440;-91
2021/09/04 06:42:54;;;;;;;24.05;14.48;;;;;;;19.62;63.05;98660.69;5077030;28;20044;-91
2021/09/04 06:45:20;;;;;;;21.48;11.18;;;;;;;19.71;62.69;98681.69;5073079;28;20033;-93
2021/09/04 06:47:46;;;;;;;18.33;12.02;;;;;;;19.67;62.70;98675.63;5078383;28;20037;-92
2021/09/04 06:50:13;;;;;;;19.63;10.73;;;;;;;19.66;62.38;98663.09;5072176;28;20044;-92
2021/09/04 06:52:39;;;;;;;19.98;9.48;;;;;;;19.87;62.00;98678.88;5084840;22;20124;-93
2021/09/04 06:55:05;;;;;;;15.23;9.23;;;;;;;19.99;61.63;98685.25;5053925;28;20135;-93
2021/09/04 06:57:32;;;;;;;15.55;8.68;;;;;;;20.17;61.25;98680.44;5053229;28;20123;-91
2021/09/04 06:59:58;;;;;;;16.02;8.10;;;;;;;20.35;60.85;98681.06;5052383;28;20041;-91
2021/09/04 07:02:28;;;;;;;13.25;7.82;;;;;;;20.44;59.74;98680.41;5057195;28;20439;-91
2021/09/04 07:04:54;;;;;;;14.85;7.30;;;;;;;20.69;59.09;98695.84;5058420;28;20041;-91
2021/09/04 07:07:21;;;;;;;13.57;7.95;;;;;;;20.73;58.59;98673.00;5057124;28;20044;-91
2021/09/04 07:09:47;;;;;;;11.82;7.60;;;;;;;20.72;58.06;98671.28;5057123;28;20106;-92
2021/09/04 07:12:12;;;;;;;13.05;7.93;;;;;;;20.90;58.18;98691.59;5056879;28;20048;-92
2021/09/04 07:14:38;;;;;;;17.15;7.25;;;;;;;21.03;57.48;98688.88;5060368;28;20056;-92
2021/09/04 07:17:04;;;;;;;10.38;6.45;;;;;;;21.20;56.04;98690.38;5055567;28;20045;-92
2021/09/04 07:19:30;;;;;;;9.82;6.82;;;;;;;21.29;56.97;98695.13;5057208;28;20028;-92
2021/09/04 07:21:55;;;;;;;11.32;7.20;;;;;;;21.42;54.24;98694.28;5056772;28;20037;-91
2021/09/04 07:24:23;;;;;;;10.40;6.75;;;;;;;21.42;54.32;98691.56;5056883;28;20037;-91
2021/09/04 07:26:48;;;;;;;10.55;6.57;;;;;;;21.38;54.57;98692.72;5056702;28;20048;-90
2021/09/04 07:29:14;;;;;;;10.88;6.63;;;;;;;21.28;55.60;98689.84;5057039;28;20045;-89
2021/09/04 07:31:40;;;;;;;11.27;6.80;;;;;;;21.36;54.98;98697.38;5053828;28;20059;-92
2021/09/04 07:34:06;;;;;;;10.10;6.97;;;;;;;21.40;55.22;98705.16;5057879;28;20063;-92
2021/09/04 07:36:31;;;;;;;9.90;6.40;;;;;;;21.49;55.32;98707.25;5058342;28;20077;-92
2021/09/04 07:38:57;;;;;;;12.57;7.43;;;;;;;21.61;55.79;98719.00;5057764;28;20045;-91
2021/09/04 07:41:25;;;;;;;13.18;7.70;;;;;;;21.71;55.77;98725.47;5058094;28;20041;-92
2021/09/04 07:43:51;;;;;;;14.85;8.20;;;;;;;21.73;55.13;98712.72;5056337;28;20032;-92
2021/09/04 07:46:16;;;;;;;16.15;8.55;;;;;;;21.79;54.64;98714.06;5055591;28;20083;-91
2021/09/04 07:48:42;;;;;;;13.70;8.10;;;;;;;21.94;54.75;98720.19;5056077;28;20393;-91
2021/09/04 07:51:08;;;;;;;12.48;7.38;;;;;;;22.10;53.10;98723.50;5055991;28;20133;-90
2021/09/04 07:53:34;;;;;;;11.25;7.13;;;;;;;22.01;52.60;98717.91;5055316;28;20120;-91
2021/09/04 07:55:59;;;;;;;13.88;6.95;;;;;;;22.05;53.00;98720.25;5056165;28;20108;-91
2021/09/04 07:58:27;;;;;;;11.88;6.80;;;;;;;22.08;51.95;98714.63;5056607;28;20037;-91
2021/09/04 08:00:53;;;;;;;12.60;7.05;;;;;;;21.97;53.03;98724.50;5053952;28;20033;-90
2021/09/04 08:03:18;;;;;;;12.93;6.75;;;;;;;21.91;53.95;98739.38;5055087;28;20052;-90
2021/09/04 08:05:44;;;;;;;17.00;7.10;;;;;;;21.79;54.14;98737.59;5056577;28;20037;-91
2021/09/04 08:08:10;;;;;;;11.98;7.00;;;;;;;21.88;53.80;98742.31;5055624;28;20044;-91
2021/09/04 08:10:38;;;;;;;14.80;7.72;;;;;;;21.73;55.65;98755.16;5056328;28;20128;-91
2021/09/04 08:13:04;;;;;;;16.25;7.90;;;;;;;21.57;55.98;98749.97;5055802;28;20090;-92
2021/09/04 08:15:31;;;;;;;14.40;8.63;;;;;;;21.50;56.51;98757.69;5051536;28;20033;-91
2021/09/04 08:17:57;;;;;;;12.93;8.40;;;;;;;21.45;57.04;98770.69;5055864;28;20051;-91
2021/09/04 08:20:23;;;;;;;15.40;8.27;;;;;;;21.66;56.33;98767.38;5054881;28;20037;-91
2021/09/04 08:22:49;;;;;;;12.07;8.02;;;;;;;21.85;55.56;98766.91;5055244;28;20112;-92
2021/09/04 08:25:18;;;;;;;13.57;8.15;;;;;;;22.01;54.51;98767.53;5055259;28;20071;-89
2021/09/04 08:27:43;;;;;;;;;;;;;;;22.26;53.91;98776.53;5055923;28;20041;-91
2021/09/04 08:30:11;;;;;;;12.40;7.97;;;;;;;22.10;54.31;98769.53;5054035;28;19943;-91
2021/09/04 08:32:38;;;;;;;11.88;7.60;;;;;;;22.29;53.67;98760.94;5054730;28;20437;-91
2021/09/04 08:35:05;;;;;;;13.82;7.72;;;;;;;22.50;53.37;98766.56;5053631;28;20191;-92
2021/09/04 08:37:31;;;;;;;14.73;8.10;;;;;;;22.45;53.21;98766.03;5055013;28;20044;-91
2021/09/04 08:39:57;;;;;;;13.98;8.02;;;;;;;22.63;53.10;98761.06;5055473;28;20514;-89
2021/09/04 08:42:23;;;;;;;13.48;9.05;;;;;;;22.57;52.63;98764.22;5055062;28;20121;-91
2021/09/04 08:44:53;;;;;;;11.80;8.02;;;;;;;22.33;52.99;98766.97;5055542;28;20123;-90
2021/09/04 08:47:20;;;;;;;13.82;8.68;;;;;;;22.44;52.87;98768.88;5053279;28;20041;-91
2021/09/04 08:49:48;;;;;;;13.90;8.07;;;;;;;22.47;52.42;98765.94;5055113;28;20041;-93
2021/09/04 08:52:18;;;;;;;14.00;8.00;;;;;;;22.76;52.24;98769.97;5054045;28;20040;-91
2021/09/04 08:54:44;;;;;;;12.27;7.32;;;;;;;22.93;51.91;98778.66;5053468;28;20392;-92
2021/09/04 08:57:10;;;;;;;16.98;9.18;;;;;;;22.64;52.86;98787.19;5054586;28;20037;-92
2021/09/04 08:59:36;;;;;;;16.20;9.43;;;;;;;22.50;53.44;98763.84;5054671;28;20049;-92
2021/09/04 09:02:09;;;;;;;17.02;9.90;;;;;;;22.62;53.18;98759.34;5052418;28;20079;-91
2021/09/04 09:04:35;;;;;;;15.68;9.02;;;;;;;22.82;52.59;98762.38;5054324;28;20063;-91
2021/09/04 09:07:02;;;;;;;13.25;8.88;;;;;;;22.92;51.69;98766.06;5054153;28;20036;-92
2021/09/04 09:09:28;;;;;;;15.35;8.93;;;;;;;22.98;51.92;98755.59;5053732;28;20037;-89
2021/09/04 09:11:55;;;;;;;15.40;8.48;;;;;;;23.11;51.65;98763.66;5052442;28;20118;-91
2021/09/04 09:14:23;;;;;;;15.52;8.70;;;;;;;23.29;51.25;98758.66;5053711;28;20413;-92
2021/09/04 09:16:51;;;;;;;14.60;9.15;;;;;;;23.62;50.24;98769.66;5052495;28;20095;-91
2021/09/04 09:19:19;;;;;;;15.00;8.38;;;;;;;23.75;49.79;98767.66;5054719;28;20059;-90
2021/09/04 09:21:45;;;;;;;16.65;8.48;;;;;;;24.16;48.72;98753.41;5053750;28;20049;-92
2021/09/04 09:24:17;;;;;;;13.27;7.90;;;;;;;24.84;47.35;98750.44;5054535;28;20052;-90
2021/09/04 09:26:48;;;;;;;15.52;8.48;;;;;;;24.89;45.20;98745.44;5055833;28;20037;-93
2021/09/04 09:29:15;;;;;;;12.50;7.82;;;;;;;24.63;46.87;98741.38;5056825;28;20402;-91
2021/09/04 09:31:41;;;;;;;18.42;8.15;;;;;;;25.13;46.15;98739.72;5054168;28;20051;-91
2021/09/04 09:34:08;;;;;;;12.88;6.93;;;;;;;25.51;45.12;98748.25;5054325;28;20041;-94
2021/09/04 09:36:49;;;;;;;12.02;7.53;;;;;;;25.62;45.12;98737.25;5055441;28;20056;-94
2021/09/04 09:39:18;;;;;;;13.90;7.80;;;;;;;25.35;44.44;98741.47;5054510;28;20041;-93
2021/09/04 09:41:48;;;;;;;13.50;7.70;;;;;;;25.19;44.99;98741.03;5053564;28;20040;-93
2021/09/04 09:44:21;;;;;;;12.43;7.45;;;;;;;24.88;45.68;98726.56;5054893;28;20064;-93
2021/09/04 09:46:51;;;;;;;11.25;7.43;;;;;;;24.79;45.34;98726.34;5051611;28;20029;-91
2021/09/04 09:49:17;;;;;;;11.95;7.47;;;;;;;24.17;47.01;98733.38;5052865;28;20037;-93
2021/09/04 09:51:44;;;;;;;15.23;7.70;;;;;;;24.43;46.05;98734.91;5054548;28;20063;-91
2021/09/04 09:54:11;;;;;;;11.05;7.47;;;;;;;24.56;45.61;98719.31;5047161;28;20054;-91
2021/09/04 09:56:40;;;;;;;12.60;7.68;;;;;;;24.84;45.15;98720.50;5054408;28;20080;-91
2021/09/04 09:59:07;;;;;;;10.38;7.72;;;;;;;24.75;44.40;98708.56;5053017;28;20036;-92
2021/09/04 10:01:33;;;;;;;12.40;7.93;;;;;;;24.87;44.60;98694.88;5052556;28;20083;-92
2021/09/04 10:03:59;;;;;;;11.30;7.30;;;;;;;25.72;42.75;98688.25;5054821;28;20117;-91
2021/09/04 10:06:25;;;;;;;12.07;7.50;;;;;;;26.23;40.86;98692.69;5054470;28;20047;-92
2021/09/04 10:08:52;;;;;;;10.85;6.97;;;;;;;26.83;40.22;98682.47;5054712;28;20045;-92
2021/09/04 10:11:18;;;;;;;12.90;7.55;;;;;;;26.66;39.45;98674.19;5055335;28;20108;-92
2021/09/04 10:13:46;;;;;;;11.20;7.45;;;;;;;25.91;42.56;98679.31;5054920;28;20383;-91
2021/09/04 10:16:11;;;;;;;11.70;7.50;;;;;;;26.47;40.57;98677.75;5052944;28;20067;-92
2021/09/04 10:18:38;;;;;;;12.07;7.13;;;;;;;26.68;40.57;98681.22;5054053;28;20037;-91
2021/09/04 10:21:08;;;;;;;11.65;7.38;;;;;;;26.12;41.45;98677.31;5054968;28;20049;-93
2021/09/04 10:23:39;;;;;;;10.55;7.55;;;;;;;26.39;41.22;98679.34;5055610;28;20037;-93
2021/09/04 10:26:28;;;;;;;13.18;7.95;;;;;;;25.85;41.60;98691.63;5055235;28;20468;-92
2021/09/04 10:29:00;;;;;;;14.23;7.88;;;;;;;25.04;43.36;98679.81;5054662;28;20029;-93
2021/09/04 10:31:45;;;;;;;12.45;7.78;;;;;;;25.09;43.96;98682.97;5052591;28;20126;-91
2021/09/04 10:34:12;;;;;;;11.23;7.43;;;;;;;25.27;42.70;98666.94;5052811;28;20025;-91
2021/09/04 10:36:52;;;;;;;13.35;7.90;;;;;;;25.30;43.25;98672.09;5057398;28;20194;-92
2021/09/04 10:39:20;;;;;;;11.82;7.50;;;;;;;25.55;42.22;98674.31;5058566;28;20033;-90
2021/09/04 10:41:47;;;;;;;12.82;7.60;;;;;;;25.82;42.01;98667.34;5058479;28;20049;-91
2021/09/04 10:44:15;;;;;;;11.43;7.47;;;;;;;26.13;40.92;98684.50;5057097;28;20045;-92
2021/09/04 10:46:42;;;;;;;15.80;8.38;;;;;;;26.52;40.30;98673.56;5060268;28;20048;-88
2021/09/04 10:49:08;;;;;;;12.23;7.43;;;;;;;26.61;41.00;98683.66;5059847;28;20049;-91
2021/09/04 10:51:45;;;;;;;15.05;8.20;;;;;;;26.27;40.91;98676.91;5058308;28;20059;-93
2021/09/04 10:54:11;;;;;;;12.30;7.35;;;;;;;26.54;41.04;98676.16;5056941;28;20037;-92
2021/09/04 10:56:39;;;;;;;12.85;8.70;;;;;;;25.71;42.84;98670.22;5058388;28;20094;-91
2021/09/04 10:59:04;;;;;;;13.03;8.63;;;;;;;26.01;42.61;98661.13;5056838;28;20033;-92
2021/09/04 11:01:52;;;;;;;15.73;9.20;;;;;;;26.14;41.73;98649.94;5055592;28;20312;-92
2021/09/04 11:04:19;;;;;;;12.20;8.20;;;;;;;25.88;42.06;98664.09;5059698;28;20048;-92
2021/09/04 11:06:49;;;;;;;16.73;8.63;;;;;;;25.45;43.81;98639.91;5053685;28;20037;-93
2021/09/04 11:09:15;;;;;;;10.18;7.07;;;;;;;25.50;40.96;98643.91;5056875;28;20053;-92
2021/09/04 11:11:43;;;;;;;10.98;7.68;;;;;;;25.74;42.61;98651.72;5058128;28;20045;-91
2021/09/04 11:14:17;;;;;;;12.33;7.67;;;;;;;25.66;42.48;98648.84;5059297;28;20076;-92
2021/09/04 11:16:47;;;;;;;11.02;6.90;;;;;;;25.66;42.45;98650.72;5055799;28;20398;-91
2021/09/04 11:19:16;;;;;;;11.82;6.78;;;;;;;25.67;42.16;98646.97;5057122;28;20037;-91
2021/09/04 11:21:53;;;;;;;10.10;6.72;;;;;;;25.80;41.69;98639.41;5057527;28;20040;-92